메인 페이지
METAR-TAF:

METAR-TAF

공항 :

Guaratinguetá, 상파울루, 브라질

위도: 22-47S, 경도: 045-12W, 고도: 537m

현재 날씨관측

예보는 43분 전, 22:00시(UTC)에 발표되었습니다.
북동4kt
온도 29°C
습도 52%
기압 1014 hPa
시정: 9000m

METAR: SBGW 182200Z 04004KT 9000 NSC 29/18 Q1014

시각: 19:43 (22:43 UTC)

예보

예보는 31 시간 43분 전, 15:00시(UTC)에 발표되었습니다.
예보 대상 시간: 17일 18시부터 18일 06시까지 (UTC)
북북동8kt
시정 10km 이상
고도 2500ft 상공 구름 많음
전환 중
17일 20시부터 17일 24시까지 (UTC)
12kt
고도 3000ft 상공 구름 보통

TAF: SBGW 171500Z 1718/1806 03008KT 9999 BKN025 TX25/1718Z TN19/1806Z BECMG 1720/1724 08012KT SCT030 RMK PEN

4,000개 이상의 공항 관측 자료 및 예보 (METAR 및 TAF 보고).

지도상에서 검색 가능한 기상관측소가 노란 점과 빨간 점으로 표시되어 있습니다.

기상관측소 명을 보려면 표시 위로 마우스를 이동하세요.

날씨 관측과 예보를 보려면 클릭하세요.

지도 변경 : 확대하려면 엑스 표시가 있는 녹색 버튼, 축소하려면 빼기 표시가 있는 녹색 버튼, 다음 페이지의 지도를 보려면 녹색 화살표를 클릭하세요.


METAR-TAF: